Beloit, KS (67420)

5:11 AM CDT on August 04, 2015 (GMT -0500)
Kansas | | Change Station
CLOSE
Current Station
Personal Weather Station
Location: Beloit, KS
Elevation: 1404 ft
Nearby Weather Stations

Elev 1404 ft 39.46 °N, 98.10 °W | Updated 0 second ago

Mostly Cloudy
Mostly Cloudy
73.1 °F
Feels Like 72 °F
N
1.2
Wind Variable Wind from ENE
Gusts 2.0 mph

Today
High -- | Low -- °F
--% Chance of Precip.
Yesterday
High -- | Low -- °F
Precip. -- in
6:34 AM 8:41 PM
Waning Gibbous, 79% visible
Pressure 29.86 in
Visibility 0.2 miles
Clouds
Heat Index 72 °F
Dew Point 69 °F
Humidity 86%
Rainfall 0.00 in
Snow Depth Not available.
UV Not available.
Pollen 7.10 out of 12
Air Quality Not available.
Flu Activity Not available.
METAR KCNK 040955Z AUTO 11003KT 1/4SM FG VV001 22/22 A2990 RMK AO2 SLP109 T02170217

More Conditions Fewer Conditions

Pressure 29.86 in
Visibility 0.2 miles
Clouds
Heat Index 72 °F
Dew Point 69 °F
Humidity 86%
Rainfall 0.00 in
Snow Depth Not available.
UV Not available.
Pollen 7.10 out of 12
Air Quality Not available.
Flu Activity Not available.
METAR KCNK 040955Z AUTO 11003KT 1/4SM FG VV001 22/22 A2990 RMK AO2 SLP109 T02170217

More Conditions Fewer Conditions

10-Day Weather Forecast

×

Almanac

Astronomy

Aug. 04, 2015 Rise Set
Actual Time
Civil Twilight
Nautical Twilight
Astronomical Twilight
Moon
Length of Visible Light
Length of Day
Tomorrow will be .
, % of the Moon is Illuminated

Today's Extremes

State Highs State Lows

Community

WunderPhotos

Upload Photos

1,843,883 photos uploaded!

WunderBlogs® & News

Nearby

Air Quality

  Air Quality AQ Index Pollutant
Not available.

Snow Depth

Station Depth Elevation

Earthquake Activity

City Distance Mag. Time & Date
Minimum magnitude displayed is 2.5.

Coastal Water Temperatures

Place Temperature

Stations

Nearby Weather Stations

Station Location Temp. Windchill Dew Point Humidity Wind Precip. Elev Updated Type